sensor_id;sensor_type;location;lat;lon;timestamp;temperature;humidity
10175;DHT22;18221;38.704;0.152;2023-06-10T00:00:06;22.00;99.90
10175;DHT22;18221;38.704;0.152;2023-06-10T00:13:15;22.20;99.90
10175;DHT22;18221;38.704;0.152;2023-06-10T00:15:43;22.20;99.90
10175;DHT22;18221;38.704;0.152;2023-06-10T00:18:11;22.20;99.90
10175;DHT22;18221;38.704;0.152;2023-06-10T00:20:39;22.20;99.90
10175;DHT22;18221;38.704;0.152;2023-06-10T00:23:08;22.20;99.90
10175;DHT22;18221;38.704;0.152;2023-06-10T00:25:37;22.20;99.90
10175;DHT22;18221;38.704;0.152;2023-06-10T00:28:05;22.20;99.90
10175;DHT22;18221;38.704;0.152;2023-06-10T00:30:35;22.10;99.90
10175;DHT22;18221;38.704;0.152;2023-06-10T00:33:03;22.10;99.90
10175;DHT22;18221;38.704;0.152;2023-06-10T00:35:31;22.10;99.90
10175;DHT22;18221;38.704;0.152;2023-06-10T00:37:59;22.10;99.90
10175;DHT22;18221;38.704;0.152;2023-06-10T00:40:27;22.20;99.90
10175;DHT22;18221;38.704;0.152;2023-06-10T00:42:55;22.20;99.90
10175;DHT22;18221;38.704;0.152;2023-06-10T00:45:23;22.30;99.90
10175;DHT22;18221;38.704;0.152;2023-06-10T00:47:53;22.30;99.90
10175;DHT22;18221;38.704;0.152;2023-06-10T00:50:21;22.30;99.90
10175;DHT22;18221;38.704;0.152;2023-06-10T00:52:49;22.30;99.90
10175;DHT22;18221;38.704;0.152;2023-06-10T00:55:17;22.30;99.90
10175;DHT22;18221;38.704;0.152;2023-06-10T00:57:46;22.30;99.90
10175;DHT22;18221;38.704;0.152;2023-06-10T01:00:16;22.30;99.90
10175;DHT22;18221;38.704;0.152;2023-06-10T01:02:44;22.30;99.90
10175;DHT22;18221;38.704;0.152;2023-06-10T01:05:14;22.40;99.90
10175;DHT22;18221;38.704;0.152;2023-06-10T01:07:48;22.40;99.90
10175;DHT22;18221;38.704;0.152;2023-06-10T01:10:32;22.30;99.90
10175;DHT22;18221;38.704;0.152;2023-06-10T01:13:05;22.30;99.90
10175;DHT22;18221;38.704;0.152;2023-06-10T01:15:38;22.30;99.90
10175;DHT22;18221;38.704;0.152;2023-06-10T01:18:08;22.30;99.90
10175;DHT22;18221;38.704;0.152;2023-06-10T01:20:43;22.30;99.90
10175;DHT22;18221;38.704;0.152;2023-06-10T01:23:14;22.30;99.90
10175;DHT22;18221;38.704;0.152;2023-06-10T01:25:46;22.20;99.90
10175;DHT22;18221;38.704;0.152;2023-06-10T01:28:24;22.20;99.90
10175;DHT22;18221;38.704;0.152;2023-06-10T01:31:03;22.30;99.90
10175;DHT22;18221;38.704;0.152;2023-06-10T01:33:39;22.30;99.90
10175;DHT22;18221;38.704;0.152;2023-06-10T01:36:11;22.30;99.90
10175;DHT22;18221;38.704;0.152;2023-06-10T01:38:44;22.30;99.90
10175;DHT22;18221;38.704;0.152;2023-06-10T01:41:14;22.30;99.90
10175;DHT22;18221;38.704;0.152;2023-06-10T01:43:45;22.20;99.90
10175;DHT22;18221;38.704;0.152;2023-06-10T01:46:13;22.40;99.90
10175;DHT22;18221;38.704;0.152;2023-06-10T01:48:45;22.50;99.90
10175;DHT22;18221;38.704;0.152;2023-06-10T01:51:13;22.50;99.90
10175;DHT22;18221;38.704;0.152;2023-06-10T01:53:43;22.50;99.90
10175;DHT22;18221;38.704;0.152;2023-06-10T01:56:11;22.50;99.90
10175;DHT22;18221;38.704;0.152;2023-06-10T01:58:43;22.60;99.90
10175;DHT22;18221;38.704;0.152;2023-06-10T02:01:11;22.60;99.90
10175;DHT22;18221;38.704;0.152;2023-06-10T02:03:39;22.60;99.90
10175;DHT22;18221;38.704;0.152;2023-06-10T02:06:07;22.60;99.90
10175;DHT22;18221;38.704;0.152;2023-06-10T02:08:35;22.60;99.90
10175;DHT22;18221;38.704;0.152;2023-06-10T02:11:04;22.60;99.90
10175;DHT22;18221;38.704;0.152;2023-06-10T02:13:33;22.50;99.90
10175;DHT22;18221;38.704;0.152;2023-06-10T02:16:01;22.50;99.90
10175;DHT22;18221;38.704;0.152;2023-06-10T02:18:29;22.50;99.90
10175;DHT22;18221;38.704;0.152;2023-06-10T02:20:56;22.50;99.90
10175;DHT22;18221;38.704;0.152;2023-06-10T02:23:24;22.40;99.90
10175;DHT22;18221;38.704;0.152;2023-06-10T02:25:52;20.40;99.90
10175;DHT22;18221;38.704;0.152;2023-06-10T02:28:22;22.40;99.90
10175;DHT22;18221;38.704;0.152;2023-06-10T02:30:50;22.40;99.90
10175;DHT22;18221;38.704;0.152;2023-06-10T02:33:19;22.40;99.90
10175;DHT22;18221;38.704;0.152;2023-06-10T02:35:47;22.40;99.90
10175;DHT22;18221;38.704;0.152;2023-06-10T02:38:15;22.40;99.90
10175;DHT22;18221;38.704;0.152;2023-06-10T02:40:44;22.40;99.90
10175;DHT22;18221;38.704;0.152;2023-06-10T02:43:11;22.40;99.90
10175;DHT22;18221;38.704;0.152;2023-06-10T02:45:41;22.30;99.90
10175;DHT22;18221;38.704;0.152;2023-06-10T02:48:09;22.30;99.90
10175;DHT22;18221;38.704;0.152;2023-06-10T02:50:37;22.30;99.90
10175;DHT22;18221;38.704;0.152;2023-06-10T02:53:06;22.30;99.90
10175;DHT22;18221;38.704;0.152;2023-06-10T02:55:34;22.40;99.90
10175;DHT22;18221;38.704;0.152;2023-06-10T02:58:02;22.40;99.90
10175;DHT22;18221;38.704;0.152;2023-06-10T03:00:30;22.40;99.90
10175;DHT22;18221;38.704;0.152;2023-06-10T03:02:59;22.50;99.90
10175;DHT22;18221;38.704;0.152;2023-06-10T03:05:29;22.50;99.90
10175;DHT22;18221;38.704;0.152;2023-06-10T03:07:57;22.60;99.90
10175;DHT22;18221;38.704;0.152;2023-06-10T03:10:25;22.60;99.90
10175;DHT22;18221;38.704;0.152;2023-06-10T03:12:53;22.60;99.90
10175;DHT22;18221;38.704;0.152;2023-06-10T03:15:21;22.50;99.90
10175;DHT22;18221;38.704;0.152;2023-06-10T03:17:50;22.60;99.90
10175;DHT22;18221;38.704;0.152;2023-06-10T03:20:20;22.60;99.90
10175;DHT22;18221;38.704;0.152;2023-06-10T03:22:49;22.60;99.90
10175;DHT22;18221;38.704;0.152;2023-06-10T03:25:17;22.60;99.90
10175;DHT22;18221;38.704;0.152;2023-06-10T03:27:46;22.60;99.90
10175;DHT22;18221;38.704;0.152;2023-06-10T03:30:15;22.60;99.90
10175;DHT22;18221;38.704;0.152;2023-06-10T03:32:43;22.60;99.90
10175;DHT22;18221;38.704;0.152;2023-06-10T03:35:11;22.50;99.90
10175;DHT22;18221;38.704;0.152;2023-06-10T03:37:42;22.60;99.90
10175;DHT22;18221;38.704;0.152;2023-06-10T03:40:10;22.60;99.90
10175;DHT22;18221;38.704;0.152;2023-06-10T03:42:40;22.70;99.90
10175;DHT22;18221;38.704;0.152;2023-06-10T03:45:10;22.60;99.90
10175;DHT22;18221;38.704;0.152;2023-06-10T03:47:38;22.70;99.90
10175;DHT22;18221;38.704;0.152;2023-06-10T03:50:07;22.70;99.90
10175;DHT22;18221;38.704;0.152;2023-06-10T03:52:37;22.70;99.90
10175;DHT22;18221;38.704;0.152;2023-06-10T03:55:08;22.80;99.90
10175;DHT22;18221;38.704;0.152;2023-06-10T03:57:39;22.80;99.90
10175;DHT22;18221;38.704;0.152;2023-06-10T04:00:15;22.80;99.90
10175;DHT22;18221;38.704;0.152;2023-06-10T04:02:47;22.80;99.90
10175;DHT22;18221;38.704;0.152;2023-06-10T04:05:19;22.80;99.90
10175;DHT22;18221;38.704;0.152;2023-06-10T04:07:48;22.80;99.90
10175;DHT22;18221;38.704;0.152;2023-06-10T04:10:18;22.80;99.90
10175;DHT22;18221;38.704;0.152;2023-06-10T04:12:46;22.80;99.90
10175;DHT22;18221;38.704;0.152;2023-06-10T04:15:14;22.80;99.90
10175;DHT22;18221;38.704;0.152;2023-06-10T04:17:42;22.80;99.90
10175;DHT22;18221;38.704;0.152;2023-06-10T04:20:13;22.80;99.90
10175;DHT22;18221;38.704;0.152;2023-06-10T04:22:41;22.80;99.90
10175;DHT22;18221;38.704;0.152;2023-06-10T04:25:10;22.80;99.90
10175;DHT22;18221;38.704;0.152;2023-06-10T04:27:40;22.80;99.90
10175;DHT22;18221;38.704;0.152;2023-06-10T04:30:08;22.80;99.90
10175;DHT22;18221;38.704;0.152;2023-06-10T04:32:37;22.90;99.90
10175;DHT22;18221;38.704;0.152;2023-06-10T04:35:06;22.90;99.90
10175;DHT22;18221;38.704;0.152;2023-06-10T04:37:35;22.90;99.90
10175;DHT22;18221;38.704;0.152;2023-06-10T04:40:03;22.90;99.90
10175;DHT22;18221;38.704;0.152;2023-06-10T04:42:32;23.40;99.90
10175;DHT22;18221;38.704;0.152;2023-06-10T04:45:01;22.90;99.90
10175;DHT22;18221;38.704;0.152;2023-06-10T04:47:29;22.90;99.90
10175;DHT22;18221;38.704;0.152;2023-06-10T04:49:59;22.90;99.90
10175;DHT22;18221;38.704;0.152;2023-06-10T04:52:27;22.90;99.90
10175;DHT22;18221;38.704;0.152;2023-06-10T04:54:55;22.90;99.90
10175;DHT22;18221;38.704;0.152;2023-06-10T04:57:24;22.90;99.90
10175;DHT22;18221;38.704;0.152;2023-06-10T04:59:52;22.90;99.90
10175;DHT22;18221;38.704;0.152;2023-06-10T05:02:22;23.00;99.90
10175;DHT22;18221;38.704;0.152;2023-06-10T05:04:50;22.90;99.90
10175;DHT22;18221;38.704;0.152;2023-06-10T05:07:19;23.00;99.90
10175;DHT22;18221;38.704;0.152;2023-06-10T05:09:47;23.00;99.90
10175;DHT22;18221;38.704;0.152;2023-06-10T05:12:15;23.00;99.90
10175;DHT22;18221;38.704;0.152;2023-06-10T05:14:44;23.00;99.90
10175;DHT22;18221;38.704;0.152;2023-06-10T05:17:12;23.00;99.90
10175;DHT22;18221;38.704;0.152;2023-06-10T05:19:41;23.00;99.90
10175;DHT22;18221;38.704;0.152;2023-06-10T05:22:10;23.00;99.90
10175;DHT22;18221;38.704;0.152;2023-06-10T05:24:38;23.00;99.90
10175;DHT22;18221;38.704;0.152;2023-06-10T05:27:06;23.00;99.90
10175;DHT22;18221;38.704;0.152;2023-06-10T05:29:34;23.00;99.90
10175;DHT22;18221;38.704;0.152;2023-06-10T05:32:02;23.00;99.90
10175;DHT22;18221;38.704;0.152;2023-06-10T05:34:31;23.00;99.90
10175;DHT22;18221;38.704;0.152;2023-06-10T05:37:00;23.10;99.90
10175;DHT22;18221;38.704;0.152;2023-06-10T05:39:28;23.10;99.90
10175;DHT22;18221;38.704;0.152;2023-06-10T05:41:58;23.10;99.90
10175;DHT22;18221;38.704;0.152;2023-06-10T05:44:27;23.10;99.90
10175;DHT22;18221;38.704;0.152;2023-06-10T05:46:55;23.10;99.90
10175;DHT22;18221;38.704;0.152;2023-06-10T05:49:23;23.10;99.90
10175;DHT22;18221;38.704;0.152;2023-06-10T05:51:51;23.10;99.90
10175;DHT22;18221;38.704;0.152;2023-06-10T05:54:20;23.10;99.90
10175;DHT22;18221;38.704;0.152;2023-06-10T05:56:48;23.10;99.90
10175;DHT22;18221;38.704;0.152;2023-06-10T05:59:16;23.10;99.90
10175;DHT22;18221;38.704;0.152;2023-06-10T06:01:44;23.00;99.90
10175;DHT22;18221;38.704;0.152;2023-06-10T06:04:12;23.00;99.90
10175;DHT22;18221;38.704;0.152;2023-06-10T06:06:40;23.00;99.90
10175;DHT22;18221;38.704;0.152;2023-06-10T06:09:08;23.00;99.90
10175;DHT22;18221;38.704;0.152;2023-06-10T06:11:37;23.00;99.90
10175;DHT22;18221;38.704;0.152;2023-06-10T06:14:05;23.00;99.90
10175;DHT22;18221;38.704;0.152;2023-06-10T06:16:33;23.00;99.90
10175;DHT22;18221;38.704;0.152;2023-06-10T06:19:01;23.10;99.90
10175;DHT22;18221;38.704;0.152;2023-06-10T06:21:32;23.00;99.90
10175;DHT22;18221;38.704;0.152;2023-06-10T06:24:00;23.00;99.90
10175;DHT22;18221;38.704;0.152;2023-06-10T06:26:28;23.00;99.90
10175;DHT22;18221;38.704;0.152;2023-06-10T06:28:57;23.00;99.90
10175;DHT22;18221;38.704;0.152;2023-06-10T06:31:25;22.90;99.90
10175;DHT22;18221;38.704;0.152;2023-06-10T06:33:53;22.90;99.90
10175;DHT22;18221;38.704;0.152;2023-06-10T06:36:21;22.90;99.90
10175;DHT22;18221;38.704;0.152;2023-06-10T06:38:49;22.90;99.90
10175;DHT22;18221;38.704;0.152;2023-06-10T06:41:16;23.00;99.90
10175;DHT22;18221;38.704;0.152;2023-06-10T06:43:45;23.00;99.90
10175;DHT22;18221;38.704;0.152;2023-06-10T06:46:14;23.10;99.90
10175;DHT22;18221;38.704;0.152;2023-06-10T06:48:42;23.10;99.90
10175;DHT22;18221;38.704;0.152;2023-06-10T06:51:10;23.20;99.90
10175;DHT22;18221;38.704;0.152;2023-06-10T06:53:39;23.20;99.90
10175;DHT22;18221;38.704;0.152;2023-06-10T06:56:10;23.30;99.90
10175;DHT22;18221;38.704;0.152;2023-06-10T06:58:38;23.30;99.90
10175;DHT22;18221;38.704;0.152;2023-06-10T07:01:06;23.30;99.90
10175;DHT22;18221;38.704;0.152;2023-06-10T07:03:35;23.40;99.90
10175;DHT22;18221;38.704;0.152;2023-06-10T07:06:04;23.30;99.90
10175;DHT22;18221;38.704;0.152;2023-06-10T07:08:32;23.30;99.90
10175;DHT22;18221;38.704;0.152;2023-06-10T07:11:00;23.30;99.90
10175;DHT22;18221;38.704;0.152;2023-06-10T07:13:28;23.30;99.90
10175;DHT22;18221;38.704;0.152;2023-06-10T07:15:56;23.30;99.90
10175;DHT22;18221;38.704;0.152;2023-06-10T07:18:24;23.30;99.90
10175;DHT22;18221;38.704;0.152;2023-06-10T07:20:54;23.40;99.90
10175;DHT22;18221;38.704;0.152;2023-06-10T07:23:22;23.50;99.90
10175;DHT22;18221;38.704;0.152;2023-06-10T07:25:50;23.60;99.90
10175;DHT22;18221;38.704;0.152;2023-06-10T07:28:18;23.60;99.90
10175;DHT22;18221;38.704;0.152;2023-06-10T07:30:47;23.80;99.90
10175;DHT22;18221;38.704;0.152;2023-06-10T07:33:15;23.80;99.90
10175;DHT22;18221;38.704;0.152;2023-06-10T07:35:43;23.90;99.90
10175;DHT22;18221;38.704;0.152;2023-06-10T07:38:12;24.00;99.90
10175;DHT22;18221;38.704;0.152;2023-06-10T07:40:40;24.00;99.90
10175;DHT22;18221;38.704;0.152;2023-06-10T07:43:07;24.10;99.90
10175;DHT22;18221;38.704;0.152;2023-06-10T07:45:37;24.20;99.90
10175;DHT22;18221;38.704;0.152;2023-06-10T07:48:07;24.30;99.90
10175;DHT22;18221;38.704;0.152;2023-06-10T07:50:35;24.40;99.90
10175;DHT22;18221;38.704;0.152;2023-06-10T07:53:03;24.50;99.90
10175;DHT22;18221;38.704;0.152;2023-06-10T07:55:34;24.50;99.90
10175;DHT22;18221;38.704;0.152;2023-06-10T07:58:02;24.50;99.90
10175;DHT22;18221;38.704;0.152;2023-06-10T08:00:30;24.50;99.90
10175;DHT22;18221;38.704;0.152;2023-06-10T08:02:58;24.60;99.90
10175;DHT22;18221;38.704;0.152;2023-06-10T08:05:26;24.70;99.90
10175;DHT22;18221;38.704;0.152;2023-06-10T08:07:55;24.70;99.90
10175;DHT22;18221;38.704;0.152;2023-06-10T08:10:23;24.80;99.90
10175;DHT22;18221;38.704;0.152;2023-06-10T08:12:52;24.80;99.90
10175;DHT22;18221;38.704;0.152;2023-06-10T08:15:20;24.90;99.90
10175;DHT22;18221;38.704;0.152;2023-06-10T08:17:48;24.90;99.90
10175;DHT22;18221;38.704;0.152;2023-06-10T08:20:17;25.10;99.90
10175;DHT22;18221;38.704;0.152;2023-06-10T08:22:45;25.10;99.90
10175;DHT22;18221;38.704;0.152;2023-06-10T08:25:13;25.20;99.90
10175;DHT22;18221;38.704;0.152;2023-06-10T08:27:41;25.30;99.90
10175;DHT22;18221;38.704;0.152;2023-06-10T08:30:12;25.30;99.90
10175;DHT22;18221;38.704;0.152;2023-06-10T08:32:40;25.20;99.90
10175;DHT22;18221;38.704;0.152;2023-06-10T08:35:08;25.30;99.90
10175;DHT22;18221;38.704;0.152;2023-06-10T08:37:36;25.30;99.90
10175;DHT22;18221;38.704;0.152;2023-06-10T08:40:05;25.30;99.90
10175;DHT22;18221;38.704;0.152;2023-06-10T08:42:39;25.50;99.90
10175;DHT22;18221;38.704;0.152;2023-06-10T08:45:18;25.90;99.90
10175;DHT22;18221;38.704;0.152;2023-06-10T08:47:46;26.30;99.90
10175;DHT22;18221;38.704;0.152;2023-06-10T08:50:18;26.80;99.90
10175;DHT22;18221;38.704;0.152;2023-06-10T08:52:48;27.00;99.90
10175;DHT22;18221;38.704;0.152;2023-06-10T08:55:25;26.90;99.90
10175;DHT22;18221;38.704;0.152;2023-06-10T08:57:57;26.80;99.90
10175;DHT22;18221;38.704;0.152;2023-06-10T09:00:29;26.60;99.90
10175;DHT22;18221;38.704;0.152;2023-06-10T09:02:58;26.70;99.90
10175;DHT22;18221;38.704;0.152;2023-06-10T09:05:29;26.80;99.90
10175;DHT22;18221;38.704;0.152;2023-06-10T09:08:00;26.80;99.90
10175;DHT22;18221;38.704;0.152;2023-06-10T09:10:29;26.80;99.90
10175;DHT22;18221;38.704;0.152;2023-06-10T09:12:58;26.80;99.90
10175;DHT22;18221;38.704;0.152;2023-06-10T09:15:27;26.70;99.90
10175;DHT22;18221;38.704;0.152;2023-06-10T09:17:55;26.80;99.90
10175;DHT22;18221;38.704;0.152;2023-06-10T09:20:23;26.70;99.90
10175;DHT22;18221;38.704;0.152;2023-06-10T09:22:51;26.60;99.90
10175;DHT22;18221;38.704;0.152;2023-06-10T09:25:34;26.60;99.90
10175;DHT22;18221;38.704;0.152;2023-06-10T09:28:04;26.50;99.90
10175;DHT22;18221;38.704;0.152;2023-06-10T09:30:41;26.50;99.90
10175;DHT22;18221;38.704;0.152;2023-06-10T09:33:13;26.60;99.90
10175;DHT22;18221;38.704;0.152;2023-06-10T09:35:46;26.70;99.90
10175;DHT22;18221;38.704;0.152;2023-06-10T09:38:20;26.70;99.90
10175;DHT22;18221;38.704;0.152;2023-06-10T09:40:50;26.90;99.90
10175;DHT22;18221;38.704;0.152;2023-06-10T09:43:19;27.00;99.90
10175;DHT22;18221;38.704;0.152;2023-06-10T09:45:50;27.00;99.90
10175;DHT22;18221;38.704;0.152;2023-06-10T09:48:19;27.00;99.90
10175;DHT22;18221;38.704;0.152;2023-06-10T09:50:48;27.00;99.90
10175;DHT22;18221;38.704;0.152;2023-06-10T09:53:17;26.90;99.90
10175;DHT22;18221;38.704;0.152;2023-06-10T09:55:45;27.00;99.90
10175;DHT22;18221;38.704;0.152;2023-06-10T09:58:14;27.10;99.90
10175;DHT22;18221;38.704;0.152;2023-06-10T10:00:42;27.10;99.90
10175;DHT22;18221;38.704;0.152;2023-06-10T10:03:22;27.10;99.90
10175;DHT22;18221;38.704;0.152;2023-06-10T10:05:58;27.10;99.90
10175;DHT22;18221;38.704;0.152;2023-06-10T10:08:26;27.10;99.90
10175;DHT22;18221;38.704;0.152;2023-06-10T10:10:56;27.10;99.90
10175;DHT22;18221;38.704;0.152;2023-06-10T10:13:26;27.20;99.90
10175;DHT22;18221;38.704;0.152;2023-06-10T10:16:01;27.00;99.90
10175;DHT22;18221;38.704;0.152;2023-06-10T10:18:35;26.90;99.90
10175;DHT22;18221;38.704;0.152;2023-06-10T10:21:12;27.70;99.90
10175;DHT22;18221;38.704;0.152;2023-06-10T10:23:48;26.90;99.90
10175;DHT22;18221;38.704;0.152;2023-06-10T10:26:21;26.80;99.90
10175;DHT22;18221;38.704;0.152;2023-06-10T10:29:02;26.80;99.90
10175;DHT22;18221;38.704;0.152;2023-06-10T10:31:38;26.80;99.90
10175;DHT22;18221;38.704;0.152;2023-06-10T10:34:13;26.80;99.90
10175;DHT22;18221;38.704;0.152;2023-06-10T10:36:44;26.80;99.90
10175;DHT22;18221;38.704;0.152;2023-06-10T10:39:14;26.70;99.90
10175;DHT22;18221;38.704;0.152;2023-06-10T10:41:46;26.80;99.90
10175;DHT22;18221;38.704;0.152;2023-06-10T10:44:16;26.80;99.90
10175;DHT22;18221;38.704;0.152;2023-06-10T10:46:48;26.90;99.90
10175;DHT22;18221;38.704;0.152;2023-06-10T10:49:18;26.90;99.90
10175;DHT22;18221;38.704;0.152;2023-06-10T10:51:58;26.90;99.90
10175;DHT22;18221;38.704;0.152;2023-06-10T10:54:31;26.90;99.90
10175;DHT22;18221;38.704;0.152;2023-06-10T10:57:16;26.90;99.90
10175;DHT22;18221;38.704;0.152;2023-06-10T10:59:53;27.00;99.90
10175;DHT22;18221;38.704;0.152;2023-06-10T11:02:37;26.90;99.90
10175;DHT22;18221;38.704;0.152;2023-06-10T11:05:13;27.00;99.90
10175;DHT22;18221;38.704;0.152;2023-06-10T11:07:53;27.00;99.90
10175;DHT22;18221;38.704;0.152;2023-06-10T11:10:30;27.00;99.90
10175;DHT22;18221;38.704;0.152;2023-06-10T11:12:59;26.90;99.90
10175;DHT22;18221;38.704;0.152;2023-06-10T11:15:29;26.90;99.90
10175;DHT22;18221;38.704;0.152;2023-06-10T11:18:10;26.80;99.90
10175;DHT22;18221;38.704;0.152;2023-06-10T11:20:57;26.80;99.90
10175;DHT22;18221;38.704;0.152;2023-06-10T11:23:40;26.80;99.90
10175;DHT22;18221;38.704;0.152;2023-06-10T11:26:13;26.90;99.90
10175;DHT22;18221;38.704;0.152;2023-06-10T11:29:02;26.90;99.90
10175;DHT22;18221;38.704;0.152;2023-06-10T11:31:35;26.90;99.90
10175;DHT22;18221;38.704;0.152;2023-06-10T11:34:07;27.00;99.90
10175;DHT22;18221;38.704;0.152;2023-06-10T11:36:39;27.00;99.90
10175;DHT22;18221;38.704;0.152;2023-06-10T11:39:11;26.90;99.90
10175;DHT22;18221;38.704;0.152;2023-06-10T11:41:40;26.80;99.90
10175;DHT22;18221;38.704;0.152;2023-06-10T11:44:09;26.90;99.90
10175;DHT22;18221;38.704;0.152;2023-06-10T11:46:38;26.80;99.90
10175;DHT22;18221;38.704;0.152;2023-06-10T11:49:08;26.90;99.90
10175;DHT22;18221;38.704;0.152;2023-06-10T11:51:38;26.90;99.90
10175;DHT22;18221;38.704;0.152;2023-06-10T11:54:15;26.90;99.90
10175;DHT22;18221;38.704;0.152;2023-06-10T11:56:44;27.00;99.90
10175;DHT22;18221;38.704;0.152;2023-06-10T11:59:13;26.90;99.90
10175;DHT22;18221;38.704;0.152;2023-06-10T12:01:43;27.00;99.90
10175;DHT22;18221;38.704;0.152;2023-06-10T12:04:13;27.00;99.90
10175;DHT22;18221;38.704;0.152;2023-06-10T12:06:44;27.00;99.90
10175;DHT22;18221;38.704;0.152;2023-06-10T12:09:18;27.10;99.90
10175;DHT22;18221;38.704;0.152;2023-06-10T12:11:50;27.10;99.90
10175;DHT22;18221;38.704;0.152;2023-06-10T12:14:54;27.10;99.90
10175;DHT22;18221;38.704;0.152;2023-06-10T12:17:35;27.10;99.90
10175;DHT22;18221;38.704;0.152;2023-06-10T12:20:06;27.00;99.90
10175;DHT22;18221;38.704;0.152;2023-06-10T12:22:40;27.00;99.90
10175;DHT22;18221;38.704;0.152;2023-06-10T12:25:10;27.00;99.90
10175;DHT22;18221;38.704;0.152;2023-06-10T12:27:41;27.00;99.90
10175;DHT22;18221;38.704;0.152;2023-06-10T12:30:19;27.00;99.90
10175;DHT22;18221;38.704;0.152;2023-06-10T12:32:48;27.10;99.90
10175;DHT22;18221;38.704;0.152;2023-06-10T12:35:19;27.30;99.90
10175;DHT22;18221;38.704;0.152;2023-06-10T12:37:59;27.40;99.90
10175;DHT22;18221;38.704;0.152;2023-06-10T12:40:28;27.40;99.90
10175;DHT22;18221;38.704;0.152;2023-06-10T12:42:58;27.40;99.90
10175;DHT22;18221;38.704;0.152;2023-06-10T12:45:26;27.40;99.90
10175;DHT22;18221;38.704;0.152;2023-06-10T12:48:05;27.50;99.90
10175;DHT22;18221;38.704;0.152;2023-06-10T12:50:35;27.60;99.90
10175;DHT22;18221;38.704;0.152;2023-06-10T12:53:06;27.60;99.90
10175;DHT22;18221;38.704;0.152;2023-06-10T12:55:34;27.50;99.90
10175;DHT22;18221;38.704;0.152;2023-06-10T12:58:02;27.50;99.90
10175;DHT22;18221;38.704;0.152;2023-06-10T13:00:30;27.50;99.90
10175;DHT22;18221;38.704;0.152;2023-06-10T13:03:01;27.50;99.90
10175;DHT22;18221;38.704;0.152;2023-06-10T13:05:31;27.60;99.90
10175;DHT22;18221;38.704;0.152;2023-06-10T13:08:00;27.60;99.90
10175;DHT22;18221;38.704;0.152;2023-06-10T13:10:29;27.70;99.90
10175;DHT22;18221;38.704;0.152;2023-06-10T13:12:57;27.70;99.90
10175;DHT22;18221;38.704;0.152;2023-06-10T13:15:25;27.70;99.90
10175;DHT22;18221;38.704;0.152;2023-06-10T13:17:53;27.70;99.90
10175;DHT22;18221;38.704;0.152;2023-06-10T13:20:21;27.70;99.90
10175;DHT22;18221;38.704;0.152;2023-06-10T13:22:50;27.80;99.90
10175;DHT22;18221;38.704;0.152;2023-06-10T13:25:18;27.90;99.90
10175;DHT22;18221;38.704;0.152;2023-06-10T13:27:48;27.90;99.90
10175;DHT22;18221;38.704;0.152;2023-06-10T13:30:16;28.00;99.90
10175;DHT22;18221;38.704;0.152;2023-06-10T13:32:44;28.10;99.90
10175;DHT22;18221;38.704;0.152;2023-06-10T13:35:12;28.00;99.90
10175;DHT22;18221;38.704;0.152;2023-06-10T13:37:40;28.10;99.90
10175;DHT22;18221;38.704;0.152;2023-06-10T13:40:09;28.10;99.90
10175;DHT22;18221;38.704;0.152;2023-06-10T13:42:37;28.10;99.90
10175;DHT22;18221;38.704;0.152;2023-06-10T13:45:07;27.90;99.90
10175;DHT22;18221;38.704;0.152;2023-06-10T13:47:36;27.90;99.90
10175;DHT22;18221;38.704;0.152;2023-06-10T13:50:04;28.00;99.90
10175;DHT22;18221;38.704;0.152;2023-06-10T13:52:33;28.00;99.90
10175;DHT22;18221;38.704;0.152;2023-06-10T13:55:01;28.10;99.90
10175;DHT22;18221;38.704;0.152;2023-06-10T13:57:29;28.20;99.90
10175;DHT22;18221;38.704;0.152;2023-06-10T13:59:57;28.30;99.90
10175;DHT22;18221;38.704;0.152;2023-06-10T14:02:28;28.30;99.90
10175;DHT22;18221;38.704;0.152;2023-06-10T14:04:56;28.30;99.90
10175;DHT22;18221;38.704;0.152;2023-06-10T14:07:24;28.40;99.90
10175;DHT22;18221;38.704;0.152;2023-06-10T14:09:52;28.40;99.90
10175;DHT22;18221;38.704;0.152;2023-06-10T14:12:20;28.40;99.90
10175;DHT22;18221;38.704;0.152;2023-06-10T14:14:48;28.40;99.90
10175;DHT22;18221;38.704;0.152;2023-06-10T14:17:16;28.50;99.90
10175;DHT22;18221;38.704;0.152;2023-06-10T14:19:46;28.50;99.90
10175;DHT22;18221;38.704;0.152;2023-06-10T14:22:14;28.60;99.90
10175;DHT22;18221;38.704;0.152;2023-06-10T14:24:42;28.60;99.90
10175;DHT22;18221;38.704;0.152;2023-06-10T14:27:10;28.60;99.90
10175;DHT22;18221;38.704;0.152;2023-06-10T14:29:38;28.60;99.90
10175;DHT22;18221;38.704;0.152;2023-06-10T14:32:07;28.60;99.90
10175;DHT22;18221;38.704;0.152;2023-06-10T14:34:35;28.60;99.90
10175;DHT22;18221;38.704;0.152;2023-06-10T14:37:06;28.60;99.90
10175;DHT22;18221;38.704;0.152;2023-06-10T14:39:34;28.70;99.90
10175;DHT22;18221;38.704;0.152;2023-06-10T14:42:03;28.60;99.90
10175;DHT22;18221;38.704;0.152;2023-06-10T14:44:32;28.70;99.90
10175;DHT22;18221;38.704;0.152;2023-06-10T14:47:00;28.60;99.90
10175;DHT22;18221;38.704;0.152;2023-06-10T14:49:28;28.70;99.90
10175;DHT22;18221;38.704;0.152;2023-06-10T14:51:56;28.80;99.90
10175;DHT22;18221;38.704;0.152;2023-06-10T14:54:26;28.80;99.90
10175;DHT22;18221;38.704;0.152;2023-06-10T14:56:54;28.80;99.90
10175;DHT22;18221;38.704;0.152;2023-06-10T14:59:22;28.80;99.90
10175;DHT22;18221;38.704;0.152;2023-06-10T15:01:50;28.70;99.90
10175;DHT22;18221;38.704;0.152;2023-06-10T15:04:18;28.70;99.90
10175;DHT22;18221;38.704;0.152;2023-06-10T15:06:46;28.60;99.90
10175;DHT22;18221;38.704;0.152;2023-06-10T15:09:16;28.60;99.90
10175;DHT22;18221;38.704;0.152;2023-06-10T15:11:45;28.60;99.90
10175;DHT22;18221;38.704;0.152;2023-06-10T15:14:13;28.60;99.90
10175;DHT22;18221;38.704;0.152;2023-06-10T15:16:41;28.60;99.90
10175;DHT22;18221;38.704;0.152;2023-06-10T15:19:09;28.60;99.90
10175;DHT22;18221;38.704;0.152;2023-06-10T15:21:37;28.50;99.90
10175;DHT22;18221;38.704;0.152;2023-06-10T15:24:06;28.50;99.90
10175;DHT22;18221;38.704;0.152;2023-06-10T15:26:34;28.30;99.90
10175;DHT22;18221;38.704;0.152;2023-06-10T15:29:04;28.30;99.90
10175;DHT22;18221;38.704;0.152;2023-06-10T16:06:02;28.00;99.90
10175;DHT22;18221;38.704;0.152;2023-06-10T16:08:30;28.00;99.90
10175;DHT22;18221;38.704;0.152;2023-06-10T16:10:58;27.90;99.90
10175;DHT22;18221;38.704;0.152;2023-06-10T16:13:26;27.80;99.90
10175;DHT22;18221;38.704;0.152;2023-06-10T16:15:54;27.80;99.90
10175;DHT22;18221;38.704;0.152;2023-06-10T16:18:21;27.70;99.90
10175;DHT22;18221;38.704;0.152;2023-06-10T16:20:49;27.70;99.90
10175;DHT22;18221;38.704;0.152;2023-06-10T16:23:19;27.70;99.90
10175;DHT22;18221;38.704;0.152;2023-06-10T16:25:47;27.70;99.90
10175;DHT22;18221;38.704;0.152;2023-06-10T16:28:15;27.70;99.90
10175;DHT22;18221;38.704;0.152;2023-06-10T16:30:43;27.60;99.90